Pampa del Indio, Argentina
Current Conditions -  °F | °C
As of 5:00 PM on Wednesday 26 Nov 2014 (Local Time) from SARF Reporting Station
Few Clouds Few Clouds  
Wind Chill: 88°   Ceiling: Unl
Heat Index: 94°   Visibility: 6mi
Dew Point: 72°   Wind: 12mph
Humidity: 58%   Direction: 180°S
Pressure: 29.77"   Gusts: NA
Location:  26.03°S, 59.92°W
Report Text: SARF 262000Z 18010KT 9999 FEW020 31/22 Q1008
Loading
Personal Weather Stations






























Interactive Weather Map New forecast layout! Learn more

10-Day Weather Forecast

Advertisements
Track Severe Weather on mobile